Time;durP1;ratioP1;P1;durP2;ratioP2;P2;SDS_P1;SDS_P2;PMS_P1;PMS_P2;Temp;Humidity;BMP_temperature;BMP_pressure;BME280_temperature;BME280_humidity;BME280_pressure;Samples;Min_cycle;Max_cycle;Signal;HPM_P1;HPM_P2
2022/05/11 00:02:11;;;;;;;1.70;1.60;;;17.00;74.50;16.40;98368.00;;;;4997565;28;20209;-77
2022/05/11 00:04:39;;;;;;;0.90;0.90;;;17.00;74.30;16.40;98369.00;;;;5015159;28;20224;-78
2022/05/11 00:07:05;;;;;;;0.60;0.60;;;17.00;74.10;16.40;98372.00;;;;5014942;28;20300;-78
2022/05/11 00:09:32;;;;;;;0.90;0.90;;;16.90;74.30;16.40;98371.00;;;;5014842;28;20228;-78
2022/05/11 00:12:00;;;;;;;1.53;1.43;;;16.90;73.90;16.30;98365.00;;;;5014847;28;20193;-78
2022/05/11 00:14:29;;;;;;;2.77;1.50;;;16.90;73.90;16.20;98361.00;;;;5014943;28;20680;-78
2022/05/11 00:16:59;;;;;;;1.50;1.40;;;16.80;73.90;16.20;98367.00;;;;5014928;28;20228;-77
2022/05/11 00:19:27;;;;;;;1.07;1.07;;;16.70;73.90;16.10;98369.00;;;;5014966;28;20252;-77
2022/05/11 00:21:54;;;;;;;2.13;1.70;;;16.70;74.00;16.00;98367.00;;;;5014861;28;20255;-78
2022/05/11 00:24:21;;;;;;;2.50;2.30;;;16.70;74.10;16.10;98364.00;;;;5014659;28;20318;-78
2022/05/11 00:26:47;;;;;;;1.03;1.03;;;16.60;74.40;16.00;98361.00;;;;5014528;28;20229;-78
2022/05/11 00:29:14;;;;;;;1.30;1.30;;;16.60;74.30;16.10;98360.00;;;;5014645;28;20278;-78
2022/05/11 00:31:40;;;;;;;1.27;1.27;;;16.60;74.20;16.00;98352.00;;;;5014479;28;20194;-76
2022/05/11 00:34:07;;;;;;;1.90;1.80;;;16.60;74.10;16.00;98357.00;;;;5014469;28;20312;-78
2022/05/11 00:36:34;;;;;;;2.07;1.93;;;16.50;74.30;15.90;98352.00;;;;5014476;28;20204;-78
2022/05/11 00:39:01;;;;;;;1.60;1.50;;;16.50;74.70;15.90;98347.00;;;;5014436;28;20660;-78
2022/05/11 00:41:28;;;;;;;3.37;1.40;;;16.50;74.90;15.90;98349.00;;;;5014406;28;20232;-78
2022/05/11 00:43:58;;;;;;;1.73;1.63;;;16.40;75.40;15.90;98350.00;;;;5014423;28;20351;-78
2022/05/11 00:46:35;;;;;;;2.33;2.13;;;16.40;75.50;15.80;98347.00;;;;5014377;28;20221;-78
2022/05/11 00:52:00;;;;;;;1.87;1.77;;;16.40;75.30;15.80;98343.00;;;;5014250;28;20209;-78
2022/05/11 00:54:33;;;;;;;4.37;2.50;;;16.40;75.40;15.80;98340.00;;;;5014350;28;20243;-77
2022/05/11 00:57:05;;;;;;;1.83;1.73;;;16.40;75.60;15.80;98324.00;;;;5014396;28;20698;-78
2022/05/11 00:59:39;;;;;;;0.60;0.60;;;16.30;74.80;15.70;98335.00;;;;5014100;28;20219;-78
2022/05/11 01:02:06;;;;;;;2.90;0.97;;;16.30;75.20;15.70;98333.00;;;;4997218;28;20205;-78
2022/05/11 01:04:40;;;;;;;1.00;1.00;;;16.30;75.10;15.70;98335.00;;;;5014260;28;20276;-78
2022/05/11 01:07:12;;;;;;;6.03;1.20;;;16.30;75.30;15.70;98331.00;;;;5013864;28;20311;-77
2022/05/11 01:09:40;;;;;;;0.87;0.87;;;16.20;75.10;15.60;98333.00;;;;5014093;28;20637;-78
2022/05/11 01:12:13;;;;;;;1.63;1.37;;;16.20;75.00;15.60;98334.00;;;;5013589;28;20225;-77
2022/05/11 01:14:44;;;;;;;1.33;1.30;;;16.20;75.00;15.60;98328.00;;;;5013967;28;20351;-77
2022/05/11 01:17:11;;;;;;;1.20;1.20;;;16.20;74.90;15.60;98335.00;;;;5014040;28;20209;-78
2022/05/11 01:19:43;;;;;;;1.93;1.83;;;16.20;74.80;15.60;98327.00;;;;5013844;28;20225;-78
2022/05/11 01:22:16;;;;;;;1.90;1.33;;;16.20;75.10;15.50;98335.00;;;;5013979;28;20202;-78
2022/05/11 01:24:50;;;;;;;1.80;1.70;;;16.10;75.10;15.50;98337.00;;;;5013893;28;20293;-78
2022/05/11 01:27:31;;;;;;;1.57;1.47;;;16.10;75.00;15.50;98329.00;;;;5013873;28;20228;-78
2022/05/11 01:30:03;;;;;;;1.40;1.30;;;16.10;74.50;15.40;98334.00;;;;5013468;28;20309;-77
2022/05/11 01:32:32;;;;;;;0.63;0.63;;;16.10;74.10;15.40;98328.00;;;;5013660;28;20251;-77
2022/05/11 01:35:22;;;;;;;1.57;1.47;;;16.00;74.30;15.40;98324.00;;;;5013939;28;20217;-78
2022/05/11 01:38:07;;;;;;;1.40;1.30;;;15.90;74.40;15.40;98319.00;;;;5013941;28;20256;-78
2022/05/11 01:40:35;;;;;;;1.03;1.03;;;16.00;74.00;15.30;98327.00;;;;5013637;28;20232;-78
2022/05/11 01:43:01;;;;;;;1.10;1.10;;;16.00;74.10;15.30;98319.00;;;;4996339;28;20206;-78
2022/05/11 01:45:28;;;;;;;1.60;1.50;;;15.90;74.30;15.30;98323.00;;;;5013616;28;20201;-78
2022/05/11 01:47:56;;;;;;;9.97;1.23;;;15.90;74.30;15.20;98322.00;;;;5013523;28;20284;-78
2022/05/11 01:50:24;;;;;;;0.90;0.90;;;15.90;74.30;15.30;98319.00;;;;5013582;28;20229;-78
2022/05/11 01:52:50;;;;;;;1.20;1.10;;;15.80;74.30;15.20;98319.00;;;;5012477;28;20328;-78
2022/05/11 01:55:17;;;;;;;1.10;1.10;;;15.80;74.20;15.20;98327.00;;;;5013804;28;20198;-78
2022/05/11 01:57:45;;;;;;;1.30;1.20;;;15.80;74.00;15.20;98324.00;;;;5013452;28;20655;-78
2022/05/11 02:00:12;;;;;;;1.13;1.13;;;15.80;74.10;15.10;98318.00;;;;5013361;28;20300;-78
2022/05/11 02:02:39;;;;;;;0.97;0.97;;;15.80;74.20;15.00;98321.00;;;;5013282;28;20198;-78
2022/05/11 02:07:51;;;;;;;1.50;1.40;;;15.60;74.40;15.10;98313.00;;;;5013230;28;20288;-77
2022/05/11 02:10:18;;;;;;;0.97;0.90;;;15.70;75.10;15.10;98305.00;;;;5013370;28;20289;-78
2022/05/11 02:12:45;;;;;;;1.07;1.07;;;15.70;75.20;15.00;98316.00;;;;5013174;28;20308;-78
2022/05/11 02:15:13;;;;;;;1.20;1.20;;;15.60;75.00;14.90;98312.00;;;;5013340;28;20648;-78
2022/05/11 02:17:43;;;;;;;1.03;1.03;;;15.60;75.40;14.80;98311.00;;;;5013198;28;20637;-77
2022/05/11 02:20:15;;;;;;;1.10;1.10;;;15.50;76.30;14.90;98306.00;;;;5013124;28;20225;-78
2022/05/11 02:22:42;;;;;;;1.20;1.20;;;15.50;77.00;14.90;98315.00;;;;5013195;28;20213;-80
2022/05/11 02:25:10;;;;;;;0.90;0.90;;;15.50;77.00;14.80;98309.00;;;;5015873;28;20228;-78
2022/05/11 02:27:39;;;;;;;1.30;1.20;;;15.50;76.90;14.80;98309.00;;;;5016593;28;20224;-78
2022/05/11 02:30:15;;;;;;;1.13;1.13;;;15.40;76.90;14.90;98306.00;;;;5016809;28;20259;-78
2022/05/11 02:32:42;;;;;;;1.30;1.03;;;15.50;77.00;14.90;98305.00;;;;5016595;28;20240;-79
2022/05/11 02:35:12;;;;;;;0.90;0.90;;;15.50;77.10;14.90;98304.00;;;;5016711;28;20233;-78
2022/05/11 02:37:40;;;;;;;0.70;0.70;;;15.50;77.00;14.90;98308.00;;;;5018067;28;20282;-80
2022/05/11 02:40:08;;;;;;;1.00;1.00;;;15.50;77.10;14.90;98304.00;;;;5018081;28;20650;-79
2022/05/11 02:42:35;;;;;;;1.53;1.43;;;15.50;77.10;14.90;98313.00;;;;5017826;28;20336;-79
2022/05/11 02:45:02;;;;;;;1.27;1.27;;;15.50;77.30;14.80;98303.00;;;;5020668;28;20220;-77
2022/05/11 02:47:30;;;;;;;0.93;0.93;;;15.50;77.20;14.80;98300.00;;;;5022950;28;20189;-77
2022/05/11 02:49:59;;;;;;;0.70;0.70;;;15.40;76.80;14.90;98306.00;;;;5023843;28;20197;-77
2022/05/11 02:52:25;;;;;;;2.20;1.03;;;15.40;76.80;14.80;98302.00;;;;5022959;28;20371;-79
2022/05/11 02:54:52;;;;;;;1.20;1.20;;;15.50;77.00;14.80;98302.00;;;;5016310;28;20276;-78
2022/05/11 02:57:18;;;;;;;0.87;0.87;;;15.40;76.50;14.80;98299.00;;;;5016092;28;20197;-78
2022/05/11 02:59:45;;;;;;;1.10;1.10;;;15.40;76.50;14.80;98305.00;;;;5016119;28;20235;-78
2022/05/11 03:02:12;;;;;;;1.40;1.30;;;15.30;76.60;14.80;98300.00;;;;5016190;28;20205;-77
2022/05/11 03:04:39;;;;;;;1.47;1.37;;;15.40;76.70;14.80;98301.00;;;;5016081;28;20232;-77
2022/05/11 03:07:08;;;;;;;0.60;0.60;;;15.40;77.00;14.70;98300.00;;;;5015954;28;20220;-78
2022/05/11 03:09:35;;;;;;;0.87;0.87;;;15.30;77.00;14.80;98300.00;;;;5015746;28;20216;-78
2022/05/11 03:12:02;;;;;;;1.07;1.07;;;15.30;77.20;14.70;98295.00;;;;5015705;28;20220;-78
2022/05/11 03:14:28;;;;;;;1.57;1.30;;;15.30;77.00;14.80;98298.00;;;;5015867;28;20245;-78
2022/05/11 03:16:55;;;;;;;1.00;1.00;;;15.30;77.00;14.70;98305.00;;;;4998539;28;20225;-78
2022/05/11 03:19:21;;;;;;;1.37;1.30;;;15.30;77.20;14.80;98292.00;;;;5015649;28;20316;-78
2022/05/11 03:21:52;;;;;;;0.80;0.80;;;15.30;77.50;14.80;98297.00;;;;4998488;28;20210;-78
2022/05/11 03:24:19;;;;;;;1.00;1.00;;;15.30;77.40;14.70;98306.00;;;;5015825;28;20201;-75
2022/05/11 03:26:46;;;;;;;0.90;0.90;;;15.30;77.20;14.70;98292.00;;;;5015538;28;20228;-78
2022/05/11 03:29:12;;;;;;;1.20;1.20;;;15.30;77.10;14.70;98289.00;;;;5015697;28;20202;-78
2022/05/11 03:31:40;;;;;;;1.17;1.17;;;15.30;76.90;14.70;98295.00;;;;5015581;28;20394;-79
2022/05/11 03:36:53;;;;;;;0.77;0.77;;;15.30;77.20;14.60;98293.00;;;;5015133;28;20224;-79
2022/05/11 03:39:22;;;;;;;0.70;0.70;;;15.20;77.30;14.60;98291.00;;;;5015381;28;20236;-78
2022/05/11 03:41:49;;;;;;;2.40;1.57;;;15.20;77.70;14.60;98281.00;;;;5015453;28;20197;-78
2022/05/11 03:44:15;;;;;;;2.20;2.10;;;15.20;77.90;14.50;98286.00;;;;5015532;28;20205;-78
2022/05/11 03:46:42;;;;;;;1.30;1.20;;;15.10;77.60;14.60;98284.00;;;;5015286;28;20240;-79
2022/05/11 03:49:09;;;;;;;3.20;0.97;;;15.10;77.60;14.50;98287.00;;;;5015578;28;20669;-78
2022/05/11 03:51:36;;;;;;;0.80;0.80;;;15.20;77.50;14.50;98289.00;;;;5015358;28;20634;-78
2022/05/11 03:54:05;;;;;;;1.53;1.43;;;15.10;77.70;14.50;98283.00;;;;4997730;28;20613;-78
2022/05/11 03:56:33;;;;;;;4.63;1.73;;;15.10;77.90;14.50;98285.00;;;;5015116;28;20339;-77
2022/05/11 03:59:01;;;;;;;1.33;1.23;;;15.10;78.60;14.50;98290.00;;;;5015089;28;20326;-78
2022/05/11 04:01:28;;;;;;;1.47;1.37;;;15.10;78.60;14.40;98293.00;;;;5015419;28;20300;-78
2022/05/11 04:03:54;;;;;;;1.07;1.07;;;15.10;78.70;14.40;98290.00;;;;5015154;28;20644;-78
2022/05/11 04:06:21;;;;;;;0.67;0.67;;;15.00;79.00;14.40;98292.00;;;;5015007;28;20282;-78
2022/05/11 04:08:47;;;;;;;1.73;1.63;;;15.00;79.30;14.40;98289.00;;;;5015157;28;20198;-78
2022/05/11 04:11:16;;;;;;;1.00;1.00;;;15.10;79.40;14.50;98285.00;;;;4997707;28;20275;-78
2022/05/11 04:13:43;;;;;;;1.53;1.43;;;15.00;80.70;14.50;98288.00;;;;4997811;28;20259;-78
2022/05/11 04:16:09;;;;;;;1.43;1.40;;;15.10;79.80;14.50;98282.00;;;;5014804;28;20245;-78
2022/05/11 04:18:38;;;;;;;1.77;1.67;;;15.10;79.60;14.60;98288.00;;;;5014706;28;20296;-79
2022/05/11 04:21:05;;;;;;;1.20;1.20;;;15.10;79.60;14.60;98288.00;;;;5014581;28;20308;-78
2022/05/11 04:23:31;;;;;;;0.97;0.97;;;15.10;79.90;14.60;98289.00;;;;5014623;28;20189;-78
2022/05/11 04:26:00;;;;;;;0.50;0.50;;;15.20;80.30;14.70;98290.00;;;;5014612;28;20225;-78
2022/05/11 04:28:28;;;;;;;0.97;0.97;;;15.20;80.40;14.70;98288.00;;;;4997455;28;20264;-78
2022/05/11 04:31:01;;;;;;;1.10;1.10;;;15.20;80.40;14.70;98288.00;;;;5014621;28;20583;-77
2022/05/11 04:33:28;;;;;;;0.80;0.80;;;15.20;80.50;14.70;98295.00;;;;5014585;28;20276;-78
2022/05/11 04:35:54;;;;;;;1.53;1.43;;;15.20;80.40;14.70;98293.00;;;;5014646;28;20552;-79
2022/05/11 04:38:24;;;;;;;0.83;0.83;;;15.30;80.60;14.70;98288.00;;;;4981510;28;20287;-78
2022/05/11 04:40:51;;;;;;;1.27;1.27;;;15.30;80.50;14.70;98265.00;;;;5014470;28;20222;-78
2022/05/11 04:43:18;;;;;;;1.73;1.40;;;15.20;80.40;14.70;98293.00;;;;5014477;28;20197;-79
2022/05/11 04:45:46;;;;;;;1.70;1.47;;;15.30;80.50;14.80;98293.00;;;;5014245;28;20312;-78
2022/05/11 04:48:15;;;;;;;0.70;0.70;;;15.30;80.40;14.80;98292.00;;;;4996186;28;20220;-79
2022/05/11 04:50:44;;;;;;;0.77;0.77;;;15.40;80.50;14.80;98288.00;;;;5014719;28;20201;-78
2022/05/11 04:53:13;;;;;;;1.77;1.43;;;15.40;80.50;14.80;98292.00;;;;5014315;28;20245;-78
2022/05/11 04:55:40;;;;;;;1.33;1.30;;;15.50;80.40;14.90;98290.00;;;;5014364;28;20266;-79
2022/05/11 04:58:06;;;;;;;1.30;1.30;;;15.50;80.10;14.90;98289.00;;;;5014332;28;20225;-80
2022/05/11 05:00:34;;;;;;;1.30;1.20;;;15.50;79.80;14.90;98291.00;;;;5014265;28;20200;-79
2022/05/11 05:03:08;;;;;;;1.90;1.80;;;15.50;79.80;15.00;98296.00;;;;5014218;28;20216;-79
2022/05/11 05:05:38;;;;;;;0.73;0.73;;;15.50;79.50;15.10;98290.00;;;;5014469;28;20229;-78
2022/05/11 05:08:08;;;;;;;0.87;0.87;;;15.60;79.00;15.20;98296.00;;;;5014247;28;20256;-79
2022/05/11 05:10:35;;;;;;;1.43;1.33;;;15.80;78.40;15.20;98292.00;;;;5014224;28;20287;-79
2022/05/11 05:13:04;;;;;;;2.03;1.83;;;15.80;77.90;15.30;98292.00;;;;5013986;28;20217;-79
2022/05/11 05:15:32;;;;;;;0.80;0.80;;;15.90;76.90;15.40;98294.00;;;;5013996;28;20202;-78
2022/05/11 05:18:02;;;;;;;0.77;0.77;;;15.90;76.70;15.60;98300.00;;;;5013141;28;20209;-78
2022/05/11 05:20:31;;;;;;;1.27;1.27;;;16.00;76.10;15.50;98295.00;;;;5013890;28;20278;-78
2022/05/11 05:22:58;;;;;;;0.70;0.70;;;16.00;74.50;15.60;98274.00;;;;5013867;28;20197;-78
2022/05/11 05:25:25;;;;;;;1.10;1.10;;;16.10;74.90;15.70;98296.00;;;;5013706;28;20236;-78
2022/05/11 05:27:52;;;;;;;1.53;1.43;;;16.20;74.50;15.70;98292.00;;;;5013767;28;20201;-78
2022/05/11 05:33:05;;;;;;;0.93;0.93;;;16.40;74.20;15.80;98302.00;;;;5013617;28;20229;-78
2022/05/11 05:35:31;;;;;;;0.80;0.80;;;16.40;73.90;16.10;98298.00;;;;5013659;28;20212;-77
2022/05/11 05:37:58;;;;;;;1.07;1.07;;;16.50;72.30;16.10;98295.00;;;;5013916;28;20245;-78
2022/05/11 05:40:25;;;;;;;0.77;0.77;;;16.60;71.70;16.10;98299.00;;;;5013550;28;20239;-77
2022/05/11 05:42:52;;;;;;;0.97;0.97;;;16.60;72.70;16.30;98299.00;;;;4996274;28;20204;-76
2022/05/11 05:45:19;;;;;;;1.37;1.07;;;16.80;70.60;16.40;98298.00;;;;5013698;28;20271;-77
2022/05/11 05:47:46;;;;;;;2.47;1.67;;;16.90;70.40;16.50;98306.00;;;;5013640;28;20280;-78
2022/05/11 05:50:15;;;;;;;1.20;1.20;;;17.00;68.60;16.60;98302.00;;;;5013609;28;20211;-77
2022/05/11 05:52:42;;;;;;;0.70;0.70;;;17.00;69.00;16.70;98301.00;;;;5013475;28;20283;-78
2022/05/11 05:55:10;;;;;;;2.47;0.77;;;17.10;67.70;16.90;98296.00;;;;5013650;28;20586;-78
2022/05/11 05:57:36;;;;;;;0.90;0.90;;;17.30;66.10;17.10;98298.00;;;;5013691;28;20205;-79
2022/05/11 06:00:05;;;;;;;1.33;1.23;;;17.40;65.10;17.20;98296.00;;;;5016073;28;20288;-79
2022/05/11 06:02:31;;;;;;;0.60;0.60;;;17.60;64.20;17.30;98298.00;;;;5017103;28;20186;-79
2022/05/11 06:04:58;;;;;;;0.80;0.80;;;17.70;64.10;17.40;98300.00;;;;5017035;28;20235;-78
2022/05/11 06:07:25;;;;;;;1.43;0.87;;;17.80;62.80;17.60;98302.00;;;;5016856;28;20225;-77
2022/05/11 06:09:52;;;;;;;0.90;0.90;;;18.00;60.80;17.90;98305.00;;;;5017031;28;20728;-81
2022/05/11 06:12:19;;;;;;;0.70;0.70;;;18.30;59.50;18.00;98309.00;;;;5016923;28;20687;-82
2022/05/11 06:14:47;;;;;;;0.80;0.80;;;18.40;59.10;18.10;98311.00;;;;4999977;28;20232;-80
2022/05/11 06:17:17;;;;;;;1.00;1.00;;;18.60;57.60;18.10;98305.00;;;;4999662;28;20336;-82
2022/05/11 06:19:44;;;;;;;0.60;0.60;;;18.50;58.40;18.20;98299.00;;;;4999777;28;20311;-78
2022/05/11 06:22:13;;;;;;;0.57;0.57;;;18.70;58.30;18.30;98305.00;;;;5016617;28;20241;-77
2022/05/11 06:24:40;;;;;;;1.47;1.37;;;18.70;58.40;18.40;98303.00;;;;5016808;28;20259;-80
2022/05/11 06:27:14;;;;;;;1.03;1.03;;;18.80;56.80;18.40;98313.00;;;;5016896;28;20217;-79
2022/05/11 06:29:51;;;;;;;0.50;0.50;;;18.90;57.30;18.70;98312.00;;;;5016768;28;20225;-79
2022/05/11 06:32:19;;;;;;;1.00;1.00;;;19.00;56.20;18.70;98311.00;;;;5016657;28;20201;-79
2022/05/11 06:34:47;;;;;;;1.13;1.10;;;19.10;55.20;18.70;98306.00;;;;5016481;28;20236;-80
2022/05/11 06:37:16;;;;;;;1.00;1.00;;;19.20;55.00;18.80;98298.00;;;;5016982;28;20260;-79
2022/05/11 06:39:43;;;;;;;1.13;1.10;;;19.20;55.00;18.90;98305.00;;;;5016610;28;20221;-79
2022/05/11 06:42:13;;;;;;;0.67;0.67;;;19.30;55.50;19.00;98303.00;;;;5016378;28;20241;-79
2022/05/11 06:44:40;;;;;;;0.70;0.70;;;19.40;55.20;19.00;98301.00;;;;5016608;28;20201;-77
2022/05/11 06:47:08;;;;;;;1.03;1.03;;;19.40;55.40;19.10;98299.00;;;;5016341;28;20202;-79
2022/05/11 06:49:35;;;;;;;1.20;1.10;;;19.50;55.00;19.10;98297.00;;;;5016276;28;20252;-79
2022/05/11 06:52:02;;;;;;;0.50;0.50;;;19.60;54.60;19.20;98293.00;;;;5016222;28;20193;-78
2022/05/11 07:00:02;;;;;;;0.50;0.50;;;;;19.60;98296.00;;;;4999204;28;20201;-82
2022/05/11 07:02:33;;;;;;;0.77;0.77;;;20.00;52.00;19.50;98291.00;;;;5016119;28;20204;-79
2022/05/11 07:05:01;;;;;;;0.97;0.97;;;20.00;53.80;19.60;98291.00;;;;4998821;28;20312;-78
2022/05/11 07:07:28;;;;;;;0.80;0.77;;;20.00;53.70;19.70;98298.00;;;;5015874;28;20312;-81
2022/05/11 07:09:55;;;;;;;0.93;0.93;;;20.10;52.20;19.90;98285.00;;;;5015494;28;20205;-80
2022/05/11 07:12:25;;;;;;;1.00;1.00;;;20.30;52.80;19.80;98294.00;;;;5015373;28;20193;-80
2022/05/11 07:14:57;;;;;;;0.70;0.70;;;20.30;52.70;20.10;98286.00;;;;5015747;28;20307;-80
2022/05/11 07:17:27;;;;;;;1.10;1.10;;;20.40;52.50;20.10;98293.00;;;;5015840;28;20210;-79
2022/05/11 07:19:54;;;;;;;1.40;1.20;;;20.60;51.40;20.10;98298.00;;;;5015784;28;20259;-79
2022/05/11 07:22:21;;;;;;;0.60;0.60;;;20.60;50.70;20.20;98289.00;;;;5015704;28;20267;-79
2022/05/11 07:24:47;;;;;;;0.80;0.80;;;20.60;50.50;20.40;98291.00;;;;5015567;28;20269;-79
2022/05/11 07:27:14;;;;;;;0.80;0.80;;;20.80;50.00;20.40;98288.00;;;;5015591;28;20558;-80
2022/05/11 07:29:44;;;;;;;0.77;0.77;;;20.80;49.80;20.50;98282.00;;;;4998331;28;20210;-80
2022/05/11 07:32:12;;;;;;;0.70;0.70;;;20.90;49.50;20.60;98290.00;;;;5015559;28;20232;-79
2022/05/11 07:34:39;;;;;;;1.23;0.90;;;21.00;49.10;20.60;98289.00;;;;5015294;28;20289;-77
2022/05/11 07:37:08;;;;;;;1.00;1.00;;;21.10;48.40;20.80;98279.00;;;;5015541;28;20204;-79
2022/05/11 07:39:35;;;;;;;0.60;0.60;;;21.20;49.30;20.90;98274.00;;;;5015723;28;20700;-78
2022/05/11 07:42:02;;;;;;;0.80;0.80;;;;;21.10;98289.00;;;;5015474;28;20236;-78
2022/05/11 07:44:29;;;;;;;0.80;0.80;;;21.40;47.80;21.10;98274.00;;;;5015434;28;20209;-77
2022/05/11 07:46:56;;;;;;;0.90;0.90;;;21.50;48.50;21.40;98285.00;;;;5015354;28;20641;-78
2022/05/11 07:49:22;;;;;;;0.57;0.57;;;21.70;47.10;21.40;98279.00;;;;4998090;28;20625;-78
2022/05/11 07:51:52;;;;;;;0.80;0.80;;;;;21.50;98283.00;;;;5015413;28;20224;-78
2022/05/11 07:54:19;;;;;;;0.60;0.60;;;21.90;46.20;21.70;98283.00;;;;5015196;28;20657;-78
2022/05/11 08:02:16;;;;;;;0.60;0.60;;;22.10;46.50;21.90;98288.00;;;;5015281;28;20209;-79
2022/05/11 08:04:45;;;;;;;0.70;0.70;;;22.30;45.10;22.00;98270.00;;;;5015121;28;20212;-80
2022/05/11 08:07:13;;;;;;;0.77;0.77;;;;;22.10;98281.00;;;;4997594;28;20227;-82
2022/05/11 08:09:40;;;;;;;0.80;0.80;;;22.50;41.80;22.20;98282.00;;;;5015032;28;20228;-78
2022/05/11 08:12:08;;;;;;;0.70;0.70;;;;;22.30;98272.00;;;;4997598;28;20315;-79
2022/05/11 08:14:37;;;;;;;0.88;0.88;;;;;22.40;98271.00;;;;5013844;28;20226;-80
2022/05/11 08:17:05;;;;;;;0.60;0.60;;;22.70;40.80;22.50;98266.00;;;;4997700;28;20213;-78
2022/05/11 08:19:32;;;;;;;0.93;0.93;;;22.80;41.00;22.70;98268.00;;;;4997437;28;20280;-80
2022/05/11 08:21:59;;;;;;;0.88;0.88;;;23.00;41.90;22.60;98271.00;;;;5014667;28;20256;-79
2022/05/11 08:24:28;;;;;;;0.45;0.45;;;23.00;39.70;22.60;98263.00;;;;5014704;28;20217;-82
2022/05/11 08:26:54;;;;;;;0.60;0.60;;;23.00;38.30;22.80;98265.00;;;;5014799;28;20201;-80
2022/05/11 08:34:56;;;;;;;0.77;0.77;;;23.30;38.70;23.00;98262.00;;;;4997894;28;20253;-80
2022/05/11 08:37:26;;;;;;;0.77;0.77;;;23.30;39.00;23.10;98264.00;;;;5014653;28;20216;-80
2022/05/11 08:39:52;;;;;;;0.57;0.57;;;;;23.20;98264.00;;;;4997699;28;20527;-80
2022/05/11 08:42:19;;;;;;;0.55;0.55;;;23.50;37.60;23.30;98263.00;;;;5014507;28;20209;-81
2022/05/11 08:44:48;;;;;;;1.20;1.20;;;;;23.30;98262.00;;;;5014464;28;20220;-82
2022/05/11 08:47:31;;;;;;;0.60;0.60;;;23.70;37.20;23.10;98248.00;;;;5014452;28;20205;-81
2022/05/11 08:50:06;;;;;;;0.77;0.77;;;;;23.40;98254.00;;;;5014399;28;20205;-82
2022/05/11 08:52:41;;;;;;;0.65;0.65;;;;;23.50;98245.00;;;;5014368;28;20707;-83
2022/05/11 08:55:12;;;;;;;0.57;0.57;;;;;23.70;98252.00;;;;5014320;28;20220;-82
2022/05/11 08:57:41;;;;;;;0.80;0.80;;;24.00;37.80;23.60;98260.00;;;;5014293;28;20309;-81
2022/05/11 09:00:14;;;;;;;0.57;0.57;;;24.00;37.50;23.70;98246.00;;;;5014154;28;20278;-80
2022/05/11 09:02:52;;;;;;;1.05;1.00;;;24.00;37.90;23.80;98245.00;;;;5014273;28;20261;-80
2022/05/11 09:05:23;;;;;;;1.30;1.30;;;24.10;38.10;23.90;98245.00;;;;5014191;28;20308;-79
2022/05/11 09:07:53;;;;;;;0.50;0.50;;;24.20;37.90;23.90;98221.00;;;;5014164;28;20201;-79
2022/05/11 09:10:25;;;;;;;0.95;0.95;;;24.30;38.20;24.00;98238.00;;;;5014376;28;20558;-81
2022/05/11 09:12:58;;;;;;;0.65;0.65;;;24.40;36.70;24.10;98233.00;;;;5014151;28;20263;-78
2022/05/11 09:15:56;;;;;;;0.50;0.50;;;24.40;37.50;24.10;98235.00;;;;5014230;28;20205;-81
2022/05/11 09:18:33;;;;;;;0.82;0.82;;;24.50;36.30;24.30;98217.00;;;;5014239;28;20546;-81
2022/05/11 09:21:12;;;;;;;0.45;0.45;;;24.60;36.90;24.30;98222.00;;;;5014073;28;20275;-79
2022/05/11 09:23:44;;;;;;;0.82;0.82;;;24.60;36.60;24.40;98239.00;;;;5013981;28;20248;-78
2022/05/11 09:26:14;;;;;;;0.60;0.60;;;24.80;37.00;24.30;98213.00;;;;4996725;28;20236;-78
2022/05/11 09:28:45;;;;;;;0.70;0.70;;;24.80;36.50;24.50;98225.00;;;;5013981;28;20228;-80
2022/05/11 09:31:23;;;;;;;0.50;0.50;;;24.80;36.80;24.70;98234.00;;;;5013909;28;20236;-81
2022/05/11 09:33:59;;;;;;;1.42;1.33;;;25.00;36.20;24.80;98227.00;;;;5013128;28;20225;-81
2022/05/11 09:36:36;;;;;;;1.02;0.98;;;;;24.90;98227.00;;;;5012982;28;20213;-80
2022/05/11 09:39:13;;;;;;;0.88;0.88;;;25.30;34.00;25.00;98218.00;;;;5013830;28;20197;-80
2022/05/11 09:41:41;;;;;;;0.52;0.52;;;25.40;33.60;25.20;98223.00;;;;5013817;28;20204;-81
2022/05/11 09:44:20;;;;;;;1.58;1.48;;;25.50;33.60;25.20;98222.00;;;;5013641;28;20225;-79
2022/05/11 09:46:50;;;;;;;0.73;0.73;;;25.60;32.00;25.30;98222.00;;;;5013636;28;20227;-79
2022/05/11 09:49:27;;;;;;;0.63;0.63;;;25.60;32.60;25.60;98212.00;;;;4996360;28;20241;-81
2022/05/11 09:51:58;;;;;;;1.55;1.48;;;25.90;33.60;25.50;98224.00;;;;5013781;28;20240;-80
2022/05/11 09:54:33;;;;;;;0.73;0.73;;;25.90;32.50;25.50;98209.00;;;;4996346;28;20604;-79
2022/05/11 09:57:04;;;;;;;1.25;1.15;;;25.90;32.10;25.70;98188.00;;;;5013693;28;20567;-81
2022/05/11 09:59:37;;;;;;;0.88;0.88;;;26.00;32.80;26.00;98208.00;;;;4996556;28;20243;-81
2022/05/11 10:02:22;;;;;;;2.65;1.20;;;26.30;32.60;26.10;98211.00;;;;5013756;28;20201;-82
2022/05/11 10:04:57;;;;;;;0.85;0.85;;;26.40;32.50;26.00;98222.00;;;;5013509;28;20217;-79
2022/05/11 10:07:26;;;;;;;0.80;0.80;;;26.40;31.70;25.90;98196.00;;;;5013403;28;20240;-78
2022/05/11 10:10:02;;;;;;;0.60;0.60;;;26.20;32.00;26.10;98194.00;;;;5013409;28;20225;-78
2022/05/11 10:12:37;;;;;;;0.90;0.90;;;26.40;32.00;26.30;98187.00;;;;5013300;28;20684;-80
2022/05/11 10:24:08;;;;;;;0.80;0.80;;;27.10;31.90;27.10;98193.00;;;;5013312;28;20250;-80
2022/05/11 10:26:49;;;;;;;0.63;0.63;;;27.30;32.40;27.00;98186.00;;;;5013150;28;20206;-81
2022/05/11 10:29:34;;;;;;;0.65;0.65;;;27.30;31.80;26.80;98177.00;;;;5013068;28;20276;-78
2022/05/11 10:32:14;;;;;;;0.95;0.88;;;27.20;31.70;27.30;98179.00;;;;5013201;28;20205;-79
2022/05/11 10:34:55;;;;;;;0.90;0.90;;;27.40;32.20;27.20;98175.00;;;;5013088;28;20311;-82
2022/05/11 10:37:36;;;;;;;0.60;0.60;;;27.50;30.50;27.10;98147.00;;;;5013255;28;20691;-81
2022/05/11 10:40:18;;;;;;;0.60;0.60;;;27.40;30.90;27.30;98165.00;;;;5013239;28;20228;-82
2022/05/11 10:42:58;;;;;;;0.75;0.75;;;27.60;31.70;27.20;98163.00;;;;5013184;28;20229;-82
2022/05/11 10:45:41;;;;;;;0.63;0.63;;;27.50;30.70;27.10;98157.00;;;;5013401;28;20215;-81
2022/05/11 10:48:25;;;;;;;0.50;0.50;;;27.40;27.90;27.20;98158.00;;;;5016255;28;20286;-82
2022/05/11 10:51:11;;;;;;;0.75;0.75;;;27.50;27.70;27.30;98150.00;;;;5016365;28;20213;-84
2022/05/11 10:53:46;;;;;;;1.00;1.00;;;27.60;28.30;27.10;98155.00;;;;5016132;28;20230;-82
2022/05/11 10:56:35;;;;;;;0.80;0.80;;;27.50;26.80;27.30;98141.00;;;;5016488;28;20197;-81
2022/05/11 10:59:45;;;;;;;0.60;0.60;;;27.50;26.20;27.50;98141.00;;;;5016311;28;20621;-82
2022/05/11 11:03:04;;;;;;;0.68;0.68;;;27.70;25.50;27.70;98160.00;;;;4998766;28;20572;-82
2022/05/11 11:08:47;;;;;;;0.90;0.85;;;27.60;24.80;27.60;98138.00;;;;4997719;28;20240;-81
2022/05/11 11:11:30;;;;;;;0.60;0.60;;;27.80;24.80;27.60;98129.00;;;;4998709;28;20626;-80
2022/05/11 11:14:04;;;;;;;0.80;0.80;;;27.90;24.70;27.80;98121.00;;;;4998637;28;20267;-78
2022/05/11 11:16:35;;;;;;;0.68;0.68;;;28.10;24.50;27.90;98106.00;;;;5016161;28;20198;-81
2022/05/11 11:19:04;;;;;;;0.93;0.93;;;28.20;24.30;27.70;98120.00;;;;5015881;28;20243;-80
2022/05/11 11:21:32;;;;;;;1.35;1.25;;;28.10;24.10;27.80;98115.00;;;;5015706;28;20316;-79
2022/05/11 11:24:17;;;;;;;14.35;1.08;;;28.10;25.30;27.60;98116.00;;;;5015842;28;20259;-79
2022/05/11 11:26:55;;;;;;;1.20;0.65;;;28.00;23.40;27.90;98116.00;;;;5015713;28;20197;-78
2022/05/11 11:29:24;;;;;;;1.73;0.95;;;;;28.10;98114.00;;;;5015888;28;20209;-80
2022/05/11 11:32:11;;;;;;;1.17;1.17;;;28.30;23.80;28.50;98114.00;;;;5015851;28;20193;-82
2022/05/11 11:34:41;;;;;;;0.70;0.70;;;28.70;22.70;28.50;98120.00;;;;5015453;28;20356;-80
2022/05/11 11:37:43;;;;;;;0.65;0.65;;;28.70;21.40;28.20;98093.00;;;;5015609;28;20209;-81
2022/05/11 11:40:27;;;;;;;0.90;0.90;;;28.60;21.10;28.70;98103.00;;;;5015644;28;20207;-81
2022/05/11 11:42:56;;;;;;;0.70;0.70;;;28.80;23.00;28.70;98095.00;;;;5014575;28;20209;-79
2022/05/11 11:46:04;;;;;;;1.23;1.23;;;29.00;21.40;29.10;98094.00;;;;5015371;28;20225;-79
2022/05/11 11:48:38;;;;;;;1.98;1.05;;;29.30;21.50;29.10;98103.00;;;;4998205;28;20225;-80
2022/05/11 11:51:29;;;;;;;0.60;0.60;;;29.30;20.60;29.00;98085.00;;;;5015704;28;20208;-78
2022/05/11 11:53:57;;;;;;;0.68;0.68;;;29.40;20.00;29.00;98098.00;;;;5015228;28;20253;-78